createdAt,value
2023-03-06T00:00:29.757Z,2.77
2023-03-06T00:01:31.600Z,2.80
2023-03-06T00:02:35.892Z,2.97
2023-03-06T00:03:37.653Z,2.60
2023-03-06T00:04:40.500Z,3.03
2023-03-06T00:05:42.372Z,2.73
2023-03-06T00:06:45.117Z,3.13
2023-03-06T00:07:46.870Z,3.30
2023-03-06T00:08:51.781Z,2.67
2023-03-06T00:09:53.508Z,2.80
2023-03-06T00:10:57.162Z,2.80
2023-03-06T00:11:58.991Z,2.80
2023-03-06T00:13:03.192Z,3.13
2023-03-06T00:14:05.020Z,2.63
2023-03-06T00:15:09.320Z,3.23
2023-03-06T00:16:11.553Z,2.50
2023-03-06T00:17:14.303Z,2.83
2023-03-06T00:18:18.556Z,2.90
2023-03-06T00:19:20.385Z,2.93
2023-03-06T00:20:23.622Z,2.87
2023-03-06T00:21:25.350Z,2.87
2023-03-06T00:22:28.096Z,2.90
2023-03-06T00:23:29.824Z,2.60
2023-03-06T00:24:32.755Z,2.80
2023-03-06T00:25:38.481Z,3.00
2023-03-06T00:26:41.281Z,3.20
2023-03-06T00:27:43.699Z,2.80
2023-03-06T00:28:46.684Z,2.87
2023-03-06T00:29:49.274Z,2.83
2023-03-06T00:30:52.116Z,3.17
2023-03-06T00:31:53.876Z,2.97
2023-03-06T00:32:56.580Z,3.27
2023-03-06T00:33:59.658Z,3.40
2023-03-06T00:35:02.385Z,3.00
2023-03-06T00:36:05.967Z,3.03
2023-03-06T00:37:07.778Z,3.23
2023-03-06T00:38:12.222Z,2.90
2023-03-06T00:39:13.984Z,2.80
2023-03-06T00:40:18.724Z,3.20
2023-03-06T00:41:20.893Z,2.63
2023-03-06T00:42:23.683Z,3.17
2023-03-06T00:43:26.089Z,3.13
2023-03-06T00:44:28.796Z,3.20
2023-03-06T00:45:30.617Z,3.20
2023-03-06T00:46:33.348Z,2.63
2023-03-06T00:47:35.055Z,2.90
2023-03-06T00:48:37.787Z,2.97
2023-03-06T00:49:40.978Z,2.40
2023-03-06T00:50:43.680Z,2.63
2023-03-06T00:51:45.392Z,2.50
2023-03-06T00:52:48.187Z,3.00
2023-03-06T00:53:50.670Z,2.77
2023-03-06T00:54:53.482Z,2.57
2023-03-06T00:55:55.276Z,3.10
2023-03-06T00:56:58.039Z,3.33
2023-03-06T00:57:59.867Z,3.03
2023-03-06T00:59:02.631Z,3.30
2023-03-06T01:00:05.745Z,3.20
2023-03-06T01:01:08.513Z,3.13
2023-03-06T01:02:10.319Z,3.20
2023-03-06T01:03:13.119Z,3.57
2023-03-06T01:04:15.113Z,3.40
2023-03-06T01:05:19.292Z,3.17
2023-03-06T01:06:22.077Z,2.77
2023-03-06T01:07:23.878Z,3.07
2023-03-06T01:08:26.620Z,3.13
2023-03-06T01:09:29.176Z,2.93
2023-03-06T01:10:32.297Z,3.00
2023-03-06T01:11:34.057Z,2.80
2023-03-06T01:12:36.778Z,3.80
2023-03-06T01:13:38.497Z,2.90
2023-03-06T01:14:41.208Z,3.30
2023-03-06T01:15:42.968Z,3.27
2023-03-06T01:16:45.745Z,3.70
2023-03-06T01:17:47.747Z,3.47
2023-03-06T01:20:00.168Z,3.13
2023-03-06T01:21:04.006Z,2.93
2023-03-06T01:22:06.670Z,3.37
2023-03-06T01:23:08.371Z,2.93
2023-03-06T01:24:11.087Z,3.63
2023-03-06T01:25:13.259Z,3.20
2023-03-06T01:26:16.139Z,3.17
2023-03-06T01:27:17.865Z,3.63
2023-03-06T01:28:20.597Z,2.97
2023-03-06T01:29:22.296Z,3.37
2023-03-06T01:30:24.970Z,3.53
2023-03-06T01:31:26.911Z,3.07
2023-03-06T01:32:30.736Z,3.10
2023-03-06T01:33:32.713Z,3.13
2023-03-06T01:34:35.383Z,2.97
2023-03-06T01:35:38.038Z,3.07
2023-03-06T01:36:42.106Z,3.20
2023-03-06T01:37:43.873Z,2.93
2023-03-06T01:38:46.591Z,3.03
2023-03-06T01:39:48.568Z,3.40
2023-03-06T01:40:51.233Z,2.90
2023-03-06T01:41:53.019Z,3.40
2023-03-06T01:42:55.726Z,3.03
2023-03-06T01:43:57.444Z,3.37
2023-03-06T01:45:02.306Z,3.47
2023-03-06T01:46:25.000Z,3.03
2023-03-06T01:47:27.730Z,2.90
2023-03-06T01:48:29.490Z,2.63
2023-03-06T01:49:33.374Z,3.30
2023-03-06T01:50:35.076Z,3.33
2023-03-06T01:51:40.472Z,3.00
2023-03-06T01:52:48.184Z,2.90
2023-03-06T01:53:50.871Z,3.10
2023-03-06T01:54:55.146Z,3.33
2023-03-06T01:55:56.871Z,3.33
2023-03-06T01:57:02.404Z,3.23
2023-03-06T01:58:06.672Z,3.20
2023-03-06T01:59:09.506Z,3.43
2023-03-06T02:00:15.153Z,3.77
2023-03-06T02:01:18.986Z,3.27
2023-03-06T02:02:21.211Z,2.87
2023-03-06T02:03:26.557Z,3.03
2023-03-06T02:04:29.691Z,3.13
2023-03-06T02:05:31.432Z,2.60
2023-03-06T02:06:34.853Z,2.97
2023-03-06T02:07:37.806Z,2.93
2023-03-06T02:08:41.901Z,3.13
2023-03-06T02:09:43.636Z,3.30
2023-03-06T02:10:59.183Z,3.20
2023-03-06T02:12:02.313Z,3.40
2023-03-06T02:13:04.258Z,3.13
2023-03-06T02:14:06.939Z,4.07
2023-03-06T02:15:09.290Z,3.93
2023-03-06T02:16:13.485Z,3.60
2023-03-06T02:17:18.573Z,3.27
2023-03-06T02:18:20.326Z,3.13
2023-03-06T02:19:35.745Z,3.40
2023-03-06T02:20:45.701Z,3.57
2023-03-06T02:21:48.415Z,3.27
2023-03-06T02:22:54.582Z,3.30
2023-03-06T02:24:13.179Z,3.03
2023-03-06T02:25:33.123Z,3.43
2023-03-06T02:26:37.882Z,3.20
2023-03-06T02:27:39.918Z,3.37
2023-03-06T02:28:42.779Z,3.67
2023-03-06T02:29:45.620Z,3.37
2023-03-06T02:30:50.069Z,3.13
2023-03-06T02:31:51.756Z,3.50
2023-03-06T02:32:54.461Z,3.53
2023-03-06T02:34:08.432Z,3.67
2023-03-06T02:35:19.250Z,3.40
2023-03-06T02:36:20.969Z,3.60
2023-03-06T02:37:24.863Z,3.30
2023-03-06T02:38:28.942Z,3.47
2023-03-06T02:39:34.594Z,3.57
2023-03-06T02:40:38.962Z,3.70
2023-03-06T02:41:40.914Z,3.17
2023-03-06T02:42:47.471Z,3.33
2023-03-06T02:43:50.170Z,3.70
2023-03-06T02:44:54.078Z,3.00
2023-03-06T02:45:55.890Z,2.83
2023-03-06T02:46:58.712Z,3.97
2023-03-06T02:48:00.503Z,3.73
2023-03-06T02:49:03.224Z,3.87
2023-03-06T02:50:05.417Z,3.83
2023-03-06T02:51:08.052Z,3.60
2023-03-06T02:52:09.914Z,3.50
2023-03-06T02:53:14.126Z,2.80
2023-03-06T02:54:18.290Z,3.37
2023-03-06T02:55:21.108Z,3.77
2023-03-06T02:56:24.232Z,3.67
2023-03-06T02:57:26.943Z,3.57
2023-03-06T02:58:28.749Z,3.70
2023-03-06T02:59:31.433Z,4.10
2023-03-06T03:00:33.159Z,3.87
2023-03-06T03:01:35.842Z,3.23
2023-03-06T03:02:37.575Z,3.70
2023-03-06T03:03:40.421Z,3.57
2023-03-06T03:04:42.152Z,3.13
2023-03-06T03:05:44.912Z,3.57
2023-03-06T03:06:46.578Z,3.40
2023-03-06T03:07:49.208Z,3.50
2023-03-06T03:08:50.930Z,3.60
2023-03-06T03:09:53.643Z,3.43
2023-03-06T03:10:56.282Z,3.70
2023-03-06T03:12:00.372Z,3.97
2023-03-06T03:13:02.266Z,3.13
2023-03-06T03:14:05.041Z,3.53
2023-03-06T03:15:08.416Z,3.63
2023-03-06T03:16:13.951Z,3.47
2023-03-06T03:17:16.235Z,3.43
2023-03-06T03:18:18.883Z,3.50
2023-03-06T03:19:20.587Z,3.80
2023-03-06T03:20:24.204Z,3.80
2023-03-06T03:21:25.910Z,3.60
2023-03-06T03:22:28.550Z,4.20
2023-03-06T03:23:30.244Z,3.37
2023-03-06T03:24:33.139Z,3.37
2023-03-06T03:25:34.939Z,3.10
2023-03-06T03:26:37.604Z,4.53
2023-03-06T03:27:40.645Z,3.70
2023-03-06T03:28:43.602Z,3.60
2023-03-06T03:29:45.347Z,3.20
2023-03-06T03:30:48.109Z,3.67
2023-03-06T03:31:49.929Z,3.63
2023-03-06T03:32:52.670Z,3.33
2023-03-06T03:33:54.510Z,3.30
2023-03-06T03:34:57.626Z,3.60
2023-03-06T03:35:59.783Z,3.40
2023-03-06T03:37:02.476Z,3.40
2023-03-06T03:38:04.208Z,3.60
2023-03-06T03:39:07.120Z,3.30
2023-03-06T03:40:10.472Z,3.53
2023-03-06T03:41:13.188Z,3.30
2023-03-06T03:42:15.070Z,3.27
2023-03-06T03:43:19.306Z,2.97
2023-03-06T03:44:21.128Z,3.50
2023-03-06T03:45:24.215Z,3.27
2023-03-06T03:46:26.522Z,3.20
2023-03-06T03:47:29.228Z,3.03
2023-03-06T03:48:30.941Z,2.67
2023-03-06T03:49:33.586Z,3.03
2023-03-06T03:50:35.252Z,3.20
2023-03-06T03:51:37.944Z,2.90
2023-03-06T03:52:39.661Z,3.13
2023-03-06T03:53:42.390Z,3.37
2023-03-06T03:54:44.138Z,2.83
2023-03-06T03:55:47.705Z,2.77
2023-03-06T03:56:49.390Z,2.77
2023-03-06T03:57:52.191Z,2.90
2023-03-06T03:58:55.248Z,2.87
2023-03-06T03:59:58.011Z,3.10
2023-03-06T04:00:59.770Z,2.77
2023-03-06T04:02:04.682Z,2.50
2023-03-06T04:03:06.394Z,2.60
2023-03-06T04:04:09.164Z,3.33
2023-03-06T04:05:11.253Z,3.20
2023-03-06T04:06:14.843Z,3.23
2023-03-06T04:07:16.572Z,3.37
2023-03-06T04:08:19.248Z,2.80
2023-03-06T04:09:20.964Z,3.30
2023-03-06T04:10:23.676Z,3.00
2023-03-06T04:11:25.361Z,3.10
2023-03-06T04:12:28.001Z,2.80
2023-03-06T04:13:29.662Z,3.20
2023-03-06T04:14:33.763Z,3.07
2023-03-06T04:15:35.440Z,2.93
2023-03-06T04:16:38.117Z,3.50
2023-03-06T04:17:39.817Z,3.63
2023-03-06T04:18:42.454Z,2.90
2023-03-06T04:19:44.157Z,3.40
2023-03-06T04:20:47.656Z,2.93
2023-03-06T04:21:49.459Z,3.43
2023-03-06T04:22:52.144Z,3.10
2023-03-06T04:23:53.848Z,3.50
2023-03-06T04:24:56.560Z,4.07
2023-03-06T04:25:58.498Z,3.87
2023-03-06T04:27:01.236Z,4.33
2023-03-06T04:28:03.966Z,4.60
2023-03-06T04:29:06.835Z,4.67
2023-03-06T04:30:11.545Z,4.40
2023-03-06T04:31:14.654Z,5.00
2023-03-06T04:32:16.405Z,4.53
2023-03-06T04:33:19.105Z,3.57
2023-03-06T04:34:20.761Z,3.43
2023-03-06T04:35:23.455Z,4.07
2023-03-06T04:36:29.370Z,3.53
2023-03-06T04:37:31.229Z,3.37
2023-03-06T04:38:33.953Z,2.90
2023-03-06T04:39:36.092Z,3.40
2023-03-06T04:40:38.806Z,3.40
2023-03-06T04:41:41.027Z,3.10
2023-03-06T04:42:44.045Z,3.20
2023-03-06T04:43:46.288Z,3.03
2023-03-06T04:44:49.008Z,2.97
2023-03-06T04:45:52.140Z,2.77
2023-03-06T04:46:54.903Z,3.10
2023-03-06T04:47:56.981Z,3.10
2023-03-06T04:48:59.917Z,3.27
2023-03-06T04:50:01.724Z,3.03
2023-03-06T04:51:04.748Z,3.27
2023-03-06T04:52:07.174Z,3.23
2023-03-06T04:53:11.294Z,2.90
2023-03-06T04:54:12.963Z,3.60
2023-03-06T04:55:17.523Z,3.40
2023-03-06T04:56:19.318Z,3.10
2023-03-06T04:57:22.091Z,3.10
2023-03-06T04:58:23.780Z,2.90
2023-03-06T04:59:26.608Z,3.00
2023-03-06T05:00:30.588Z,3.43
2023-03-06T05:01:34.683Z,3.20
2023-03-06T05:02:36.766Z,3.43
2023-03-06T05:03:39.528Z,3.17
2023-03-06T05:04:41.236Z,3.17
2023-03-06T05:05:43.926Z,3.30
2023-03-06T05:06:46.556Z,3.13
2023-03-06T05:07:49.252Z,3.10
2023-03-06T05:08:50.944Z,3.40
2023-03-06T05:09:53.773Z,3.53
2023-03-06T05:10:56.783Z,3.60
2023-03-06T05:11:59.451Z,3.70
2023-03-06T05:13:02.181Z,3.70
2023-03-06T05:14:03.945Z,3.40
2023-03-06T05:15:07.739Z,3.77
2023-03-06T05:16:09.534Z,3.77
2023-03-06T05:17:13.646Z,3.07
2023-03-06T05:18:15.395Z,3.20
2023-03-06T05:19:18.090Z,3.40
2023-03-06T05:20:20.068Z,3.47
2023-03-06T05:21:22.810Z,3.17
2023-03-06T05:22:24.554Z,3.60
2023-03-06T05:23:27.428Z,3.87
2023-03-06T05:24:29.259Z,3.53
2023-03-06T05:25:32.163Z,3.20
2023-03-06T05:26:34.792Z,3.43
2023-03-06T05:27:37.737Z,3.10
2023-03-06T05:28:39.820Z,3.50
2023-03-06T05:29:42.636Z,3.47
2023-03-06T05:30:44.379Z,3.13
2023-03-06T05:31:47.365Z,3.20
2023-03-06T05:32:50.652Z,3.90
2023-03-06T05:33:53.313Z,3.60
2023-03-06T05:34:55.372Z,3.50
2023-03-06T05:35:58.050Z,3.83
2023-03-06T05:37:00.622Z,3.57
2023-03-06T05:38:03.416Z,3.50
2023-03-06T05:39:05.112Z,3.90
2023-03-06T05:40:10.665Z,3.50
2023-03-06T05:41:12.867Z,3.67
2023-03-06T05:42:15.537Z,3.60
2023-03-06T05:43:17.242Z,3.33
2023-03-06T05:44:19.896Z,3.70
2023-03-06T05:45:21.798Z,3.47
2023-03-06T05:46:24.678Z,3.53
2023-03-06T05:47:26.418Z,3.87
2023-03-06T05:48:30.521Z,3.60
2023-03-06T05:49:32.914Z,3.77
2023-03-06T05:50:35.634Z,3.70
2023-03-06T05:51:37.364Z,3.90
2023-03-06T05:52:40.638Z,3.50
2023-03-06T05:53:42.299Z,3.53
2023-03-06T05:54:45.113Z,2.97
2023-03-06T05:55:55.720Z,3.83
2023-03-06T05:56:58.454Z,3.60
2023-03-06T05:58:00.209Z,3.13
2023-03-06T05:59:03.081Z,3.83
2023-03-06T06:00:06.223Z,3.67
2023-03-06T06:01:10.426Z,3.40
2023-03-06T06:02:12.181Z,3.57
2023-03-06T06:03:14.937Z,3.23
2023-03-06T06:04:18.008Z,3.23
2023-03-06T06:05:20.800Z,3.92
2023-03-06T06:06:22.588Z,3.67
2023-03-06T06:07:25.388Z,3.47
2023-03-06T06:08:27.034Z,3.60
2023-03-06T06:09:30.319Z,3.63
2023-03-06T06:10:33.072Z,3.30
2023-03-06T06:11:34.762Z,3.50
2023-03-06T06:12:37.466Z,3.50
2023-03-06T06:13:39.866Z,3.50
2023-03-06T06:14:42.603Z,3.87
2023-03-06T06:15:44.530Z,3.50
2023-03-06T06:16:47.718Z,3.43
2023-03-06T06:17:49.415Z,3.13
2023-03-06T06:18:52.112Z,3.77
2023-03-06T06:19:55.146Z,3.27
2023-03-06T06:20:57.823Z,3.70
2023-03-06T06:21:59.509Z,3.43
2023-03-06T06:23:02.149Z,3.70
2023-03-06T06:24:04.172Z,3.53
2023-03-06T06:25:08.282Z,3.80
2023-03-06T06:26:11.713Z,3.40
2023-03-06T06:27:14.574Z,3.13
2023-03-06T06:28:17.230Z,4.00
2023-03-06T06:29:19.544Z,3.87
2023-03-06T06:30:22.731Z,3.97
2023-03-06T06:31:24.472Z,4.20
2023-03-06T06:32:27.195Z,3.13
2023-03-06T06:33:28.868Z,3.67
2023-03-06T06:34:31.941Z,3.20
2023-03-06T06:35:37.245Z,3.63
2023-03-06T06:36:40.648Z,3.03
2023-03-06T06:37:42.359Z,3.97
2023-03-06T06:38:45.306Z,3.67
2023-03-06T06:39:46.958Z,3.10
2023-03-06T06:41:19.358Z,3.40
2023-03-06T06:42:29.274Z,3.17
2023-03-06T06:43:34.017Z,3.40
2023-03-06T06:44:35.942Z,3.40
2023-03-06T06:45:39.626Z,3.40
2023-03-06T06:48:06.595Z,3.80
2023-03-06T06:49:08.409Z,3.67
2023-03-06T06:50:13.582Z,3.90
2023-03-06T06:51:16.903Z,3.93
2023-03-06T06:52:20.002Z,3.60
2023-03-06T06:53:21.740Z,3.53
2023-03-06T06:54:24.793Z,3.23
2023-03-06T06:55:27.092Z,3.47
2023-03-06T06:56:29.950Z,3.50
2023-03-06T06:57:31.718Z,3.03
2023-03-06T06:58:34.411Z,3.77
2023-03-06T06:59:36.065Z,3.53
2023-03-06T07:00:38.763Z,3.67
2023-03-06T07:01:40.643Z,3.70
2023-03-06T07:02:43.737Z,3.63
2023-03-06T07:03:45.466Z,3.37
2023-03-06T07:05:02.448Z,3.77
2023-03-06T07:06:06.926Z,3.63
2023-03-06T07:07:10.081Z,3.63
2023-03-06T07:08:12.829Z,3.40
2023-03-06T07:09:16.083Z,3.97
2023-03-06T07:10:19.961Z,3.47
2023-03-06T07:11:23.769Z,3.93
2023-03-06T07:12:25.466Z,3.80
2023-03-06T07:13:28.138Z,3.47
2023-03-06T07:14:30.887Z,3.73
2023-03-06T07:15:32.579Z,3.30
2023-03-06T07:16:35.235Z,3.80
2023-03-06T07:17:37.141Z,3.73
2023-03-06T07:18:39.894Z,3.27
2023-03-06T07:19:42.536Z,3.20
2023-03-06T07:20:44.327Z,3.40
2023-03-06T07:21:47.027Z,3.77
2023-03-06T07:22:51.842Z,3.53
2023-03-06T07:23:57.296Z,3.53
2023-03-06T07:24:59.354Z,3.87
2023-03-06T07:26:02.511Z,3.47
2023-03-06T07:27:04.201Z,4.00
2023-03-06T07:28:07.136Z,4.30
2023-03-06T07:29:08.960Z,3.53
2023-03-06T07:30:13.643Z,4.40
2023-03-06T07:31:16.556Z,3.90
2023-03-06T07:32:18.484Z,4.00
2023-03-06T07:33:21.216Z,3.97
2023-03-06T07:34:23.912Z,4.10
2023-03-06T07:35:26.238Z,4.07
2023-03-06T07:36:28.874Z,3.80
2023-03-06T07:37:30.634Z,4.10
2023-03-06T07:38:36.618Z,3.53
2023-03-06T07:39:39.276Z,3.57
2023-03-06T07:40:42.254Z,3.67
2023-03-06T07:41:43.983Z,3.80
2023-03-06T07:42:46.668Z,4.17
2023-03-06T07:43:48.359Z,3.37
2023-03-06T07:44:51.037Z,3.70
2023-03-06T07:45:56.856Z,4.37
2023-03-06T07:46:59.644Z,3.87
2023-03-06T07:48:01.349Z,3.70
2023-03-06T07:49:04.186Z,3.60
2023-03-06T07:50:07.280Z,4.47
2023-03-06T07:51:15.272Z,4.37
2023-03-06T07:52:18.124Z,3.50
2023-03-06T07:53:22.644Z,3.83
2023-03-06T07:54:26.797Z,3.50
2023-03-06T07:55:28.718Z,3.80
2023-03-06T07:56:31.622Z,3.53
2023-03-06T07:57:33.320Z,4.07
2023-03-06T07:58:36.492Z,4.10
2023-03-06T07:59:38.178Z,4.10
2023-03-06T08:00:40.900Z,4.13
2023-03-06T08:01:43.641Z,3.83
2023-03-06T08:02:45.367Z,4.27
2023-03-06T08:03:50.013Z,3.87
2023-03-06T08:04:52.547Z,4.10
2023-03-06T08:05:55.258Z,4.23
2023-03-06T08:06:59.505Z,3.80
2023-03-06T08:08:02.223Z,4.00
2023-03-06T08:09:04.324Z,4.47
2023-03-06T08:10:09.219Z,4.47
2023-03-06T08:11:12.079Z,3.60
2023-03-06T08:12:17.803Z,3.80
2023-03-06T08:13:19.525Z,3.83
2023-03-06T08:14:22.506Z,3.27
2023-03-06T08:15:25.200Z,3.70
2023-03-06T08:16:29.632Z,3.67
2023-03-06T08:17:32.323Z,3.70
2023-03-06T08:18:35.199Z,3.70
2023-03-06T08:19:37.955Z,3.87
2023-03-06T08:20:40.687Z,4.40
2023-03-06T08:21:43.596Z,4.00
2023-03-06T08:22:45.632Z,4.30
2023-03-06T08:23:49.042Z,3.50
2023-03-06T08:24:55.638Z,4.20
2023-03-06T08:26:00.558Z,4.37
2023-03-06T08:27:02.481Z,3.97
2023-03-06T08:28:05.389Z,3.90
2023-03-06T08:29:08.109Z,4.53
2023-03-06T08:30:12.036Z,4.63
2023-03-06T08:31:21.607Z,3.67
2023-03-06T08:32:24.332Z,4.43
2023-03-06T08:33:28.068Z,3.73
2023-03-06T08:34:30.783Z,4.00
2023-03-06T08:35:33.472Z,4.37
2023-03-06T08:36:35.224Z,4.10
2023-03-06T08:37:38.031Z,4.27
2023-03-06T08:38:39.885Z,4.93
2023-03-06T08:39:42.553Z,4.40
2023-03-06T08:40:44.257Z,4.70
2023-03-06T08:41:48.345Z,4.10
2023-03-06T08:42:51.118Z,4.20
2023-03-06T08:43:53.186Z,4.80
2023-03-06T08:44:55.850Z,3.97
2023-03-06T08:45:58.405Z,3.73
2023-03-06T08:47:01.326Z,3.88
2023-03-06T08:48:03.302Z,4.70
2023-03-06T08:49:06.307Z,5.10
2023-03-06T08:50:09.127Z,3.97
2023-03-06T08:51:12.054Z,4.20
2023-03-06T08:52:14.764Z,4.17
2023-03-06T08:53:16.763Z,4.50
2023-03-06T08:54:19.414Z,4.67
2023-03-06T08:55:22.050Z,4.32
2023-03-06T08:56:25.627Z,5.00
2023-03-06T08:57:29.632Z,4.38
2023-03-06T08:58:31.382Z,4.60
2023-03-06T08:59:34.248Z,4.50
2023-03-06T09:00:36.755Z,4.83
2023-03-06T09:01:40.008Z,3.95
2023-03-06T09:02:41.886Z,4.80
2023-03-06T09:03:44.633Z,4.67
2023-03-06T09:04:47.318Z,4.75
2023-03-06T09:05:49.057Z,3.40
2023-03-06T09:06:53.483Z,4.40
2023-03-06T09:07:57.216Z,4.60
2023-03-06T09:08:59.110Z,4.43
2023-03-06T09:10:02.029Z,4.07
2023-03-06T09:11:05.288Z,4.05
2023-03-06T09:12:08.242Z,4.18
2023-03-06T09:13:12.268Z,4.57
2023-03-06T09:14:15.308Z,4.00
2023-03-06T09:15:17.438Z,4.13
2023-03-06T09:16:20.247Z,4.00
2023-03-06T09:17:22.973Z,4.65
2023-03-06T09:18:24.784Z,3.97
2023-03-06T09:19:27.716Z,3.38
2023-03-06T09:20:29.529Z,4.22
2023-03-06T09:21:32.297Z,3.90
2023-03-06T09:22:36.111Z,4.40
2023-03-06T09:23:40.001Z,5.33
2023-03-06T09:24:42.684Z,4.53
2023-03-06T09:25:46.123Z,4.55
2023-03-06T09:26:51.133Z,4.70
2023-03-06T09:28:08.807Z,4.90
2023-03-06T09:29:16.328Z,4.63
2023-03-06T09:30:18.895Z,3.80
2023-03-06T09:31:21.693Z,4.53
2023-03-06T09:32:25.188Z,4.10
2023-03-06T09:33:28.599Z,5.53
2023-03-06T09:34:31.247Z,4.47
2023-03-06T09:35:33.006Z,5.15
2023-03-06T09:36:49.258Z,4.20
2023-03-06T09:37:58.282Z,4.45
2023-03-06T09:39:01.079Z,4.60
2023-03-06T09:40:05.884Z,4.63
2023-03-06T09:41:12.034Z,4.70
2023-03-06T09:42:17.171Z,3.53
2023-03-06T09:43:21.182Z,4.93
2023-03-06T09:44:27.616Z,3.65
2023-03-06T09:45:30.822Z,5.30
2023-03-06T09:46:47.660Z,4.60
2023-03-06T09:47:53.818Z,5.20
2023-03-06T09:49:13.236Z,3.67
2023-03-06T09:50:30.112Z,4.15
2023-03-06T09:51:42.146Z,5.05
2023-03-06T09:52:47.871Z,4.32
2023-03-06T09:54:00.142Z,4.53
2023-03-06T09:55:12.494Z,3.90
2023-03-06T09:56:17.976Z,4.63
2023-03-06T09:57:23.799Z,3.85
2023-03-06T09:58:27.154Z,4.20
2023-03-06T09:59:31.662Z,4.33
2023-03-06T10:00:36.537Z,4.57
2023-03-06T10:01:42.360Z,4.43
2023-03-06T10:02:47.405Z,4.45
2023-03-06T10:03:54.271Z,3.60
2023-03-06T10:05:01.073Z,4.60
2023-03-06T10:06:06.399Z,4.03
2023-03-06T10:07:14.440Z,4.55
2023-03-06T10:08:27.214Z,5.33
2023-03-06T10:09:36.558Z,5.10
2023-03-06T10:10:44.276Z,4.93
2023-03-06T10:11:48.215Z,4.90
2023-03-06T10:12:59.057Z,4.83
2023-03-06T10:14:15.233Z,3.93
2023-03-06T10:15:22.396Z,4.70
2023-03-06T10:16:28.182Z,4.27
2023-03-06T10:17:35.319Z,4.70
2023-03-06T10:18:39.087Z,3.58
2023-03-06T10:19:42.610Z,3.55
2023-03-06T10:20:50.001Z,4.90
2023-03-06T10:21:58.672Z,4.90
2023-03-06T10:23:11.199Z,5.32
2023-03-06T10:24:23.792Z,4.45
2023-03-06T10:25:27.958Z,3.90
2023-03-06T10:26:34.221Z,4.75
2023-03-06T10:27:39.911Z,4.15
2023-03-06T10:28:44.047Z,4.20
2023-03-06T10:30:02.272Z,4.80
2023-03-06T10:31:12.123Z,4.80
2023-03-06T10:32:29.073Z,5.03
2023-03-06T10:33:46.214Z,3.70
2023-03-06T10:34:48.422Z,4.70
2023-03-06T10:35:54.161Z,4.45
2023-03-06T10:36:59.566Z,4.25
2023-03-06T10:38:17.228Z,4.45
2023-03-06T10:39:23.126Z,4.85
2023-03-06T10:40:30.544Z,4.50
2023-03-06T10:41:35.813Z,5.15
2023-03-06T10:42:38.562Z,4.93
2023-03-06T10:43:42.610Z,4.05
2023-03-06T10:44:45.347Z,4.65
2023-03-06T10:45:50.142Z,5.18
2023-03-06T10:46:54.462Z,4.22
2023-03-06T10:48:12.876Z,4.25
2023-03-06T10:49:27.774Z,3.83
2023-03-06T10:50:32.143Z,4.10
2023-03-06T10:51:35.571Z,4.13
2023-03-06T10:52:37.310Z,4.60
2023-03-06T10:53:50.676Z,4.75
2023-03-06T10:54:53.390Z,4.45
2023-03-06T10:55:56.864Z,4.38
2023-03-06T10:56:59.619Z,4.30
2023-03-06T10:58:17.020Z,3.75
2023-03-06T10:59:22.890Z,3.60
2023-03-06T11:00:27.917Z,3.97
2023-03-06T11:01:31.703Z,4.90
2023-03-06T11:02:38.384Z,4.10
2023-03-06T11:03:41.230Z,4.40
2023-03-06T11:04:47.072Z,4.40
2023-03-06T11:06:07.470Z,4.63
2023-03-06T11:07:16.285Z,5.00
2023-03-06T11:08:21.559Z,3.92
2023-03-06T11:09:26.261Z,4.78
2023-03-06T11:10:30.167Z,4.72
2023-03-06T11:11:37.736Z,3.83
2023-03-06T11:12:40.814Z,4.65
2023-03-06T11:13:44.706Z,4.80
2023-03-06T11:14:47.507Z,4.82
2023-03-06T11:15:57.166Z,4.80
2023-03-06T11:17:00.010Z,3.90
2023-03-06T11:18:05.805Z,4.50
2023-03-06T11:19:18.858Z,4.35
2023-03-06T11:20:24.293Z,4.55
2023-03-06T11:21:31.720Z,4.38
2023-03-06T11:22:35.208Z,4.80
2023-03-06T11:23:43.998Z,4.80
2023-03-06T11:24:50.009Z,4.50
2023-03-06T11:25:56.410Z,3.70
2023-03-06T11:27:01.208Z,3.45
2023-03-06T11:28:08.657Z,4.22
2023-03-06T11:29:26.033Z,4.43
2023-03-06T11:30:33.547Z,4.60
2023-03-06T11:31:39.318Z,5.35
2023-03-06T11:32:45.128Z,5.20
2023-03-06T11:33:52.266Z,4.35
2023-03-06T11:34:57.776Z,3.70
2023-03-06T11:36:05.664Z,4.30
2023-03-06T11:37:11.325Z,4.88
2023-03-06T11:38:14.881Z,3.95
2023-03-06T11:39:23.342Z,3.80
2023-03-06T11:40:32.387Z,4.45
2023-03-06T11:41:40.348Z,4.30
2023-03-06T11:42:45.932Z,4.95
2023-03-06T11:43:55.898Z,4.18
2023-03-06T11:45:09.933Z,4.18
2023-03-06T11:46:18.485Z,5.15
2023-03-06T11:47:23.774Z,4.18
2023-03-06T11:48:29.866Z,4.25
2023-03-06T11:49:39.388Z,4.32
2023-03-06T11:50:44.389Z,4.53
2023-03-06T11:51:50.746Z,4.05
2023-03-06T11:52:55.099Z,4.57
2023-03-06T11:54:00.069Z,4.05
2023-03-06T11:55:02.018Z,3.50
2023-03-06T11:56:15.685Z,5.00
2023-03-06T11:57:20.166Z,3.90
2023-03-06T11:58:41.625Z,4.60
2023-03-06T12:00:07.823Z,3.97
2023-03-06T12:01:14.303Z,4.50
2023-03-06T12:02:27.569Z,4.88
2023-03-06T12:03:49.554Z,4.93
2023-03-06T12:04:57.133Z,4.32
2023-03-06T12:06:04.357Z,4.80
2023-03-06T12:07:20.421Z,5.15
2023-03-06T12:08:32.260Z,4.50
2023-03-06T12:09:43.423Z,4.65
2023-03-06T12:10:51.791Z,4.70
2023-03-06T12:12:07.287Z,4.35
2023-03-06T12:13:33.857Z,4.35
2023-03-06T12:14:49.560Z,4.25
2023-03-06T12:16:04.206Z,5.07
2023-03-06T12:17:14.661Z,4.25
2023-03-06T12:18:28.834Z,5.28
2023-03-06T12:19:39.137Z,4.95
2023-03-06T12:20:52.016Z,3.50
2023-03-06T12:22:08.218Z,5.00
2023-03-06T12:23:15.837Z,5.30
2023-03-06T12:24:47.642Z,4.88
2023-03-06T12:25:52.420Z,3.97
2023-03-06T12:27:04.545Z,4.63
2023-03-06T12:28:32.929Z,4.68
2023-03-06T12:29:58.559Z,4.70
2023-03-06T12:31:23.737Z,4.38
2023-03-06T12:32:37.002Z,4.53
2023-03-06T12:33:43.338Z,5.03
2023-03-06T12:35:05.882Z,4.80
2023-03-06T12:36:28.579Z,2.60
2023-03-06T12:37:39.018Z,4.13
2023-03-06T12:38:56.987Z,5.00
2023-03-06T12:40:24.377Z,4.45
2023-03-06T12:41:38.245Z,4.30
2023-03-06T12:43:03.197Z,4.60
2023-03-06T12:44:23.557Z,4.50
2023-03-06T12:45:31.119Z,3.38
2023-03-06T12:46:36.133Z,4.57
2023-03-06T12:47:43.572Z,4.78
2023-03-06T12:48:49.516Z,4.78
2023-03-06T12:49:57.465Z,4.32
2023-03-06T12:51:00.244Z,4.70
2023-03-06T12:52:05.365Z,5.25
2023-03-06T12:53:09.618Z,4.40
2023-03-06T12:54:12.747Z,5.15
2023-03-06T12:55:20.371Z,3.97
2023-03-06T12:56:24.849Z,4.35
2023-03-06T12:57:28.143Z,4.55
2023-03-06T12:58:51.858Z,2.95
2023-03-06T12:59:55.390Z,3.92
2023-03-06T13:01:04.167Z,4.30
2023-03-06T13:02:28.799Z,4.53
2023-03-06T13:03:36.532Z,5.40
2023-03-06T13:04:48.495Z,4.43
2023-03-06T13:06:24.343Z,4.13
2023-03-06T13:07:38.644Z,4.95
2023-03-06T13:08:59.341Z,5.57
2023-03-06T13:10:12.391Z,4.63
2023-03-06T13:11:31.221Z,4.28
2023-03-06T13:12:49.833Z,4.60
2023-03-06T13:13:52.559Z,4.40
2023-03-06T13:14:59.518Z,4.25
2023-03-06T13:16:13.972Z,4.40
2023-03-06T13:17:27.085Z,4.55
2023-03-06T13:18:49.045Z,4.78
2023-03-06T13:20:43.662Z,4.43
2023-03-06T13:22:03.156Z,3.72
2023-03-06T13:23:49.425Z,4.57
2023-03-06T13:25:36.880Z,4.35
2023-03-06T13:27:00.683Z,4.30
2023-03-06T13:28:04.017Z,3.95
2023-03-06T13:29:59.962Z,5.25
2023-03-06T13:31:02.709Z,4.40
2023-03-06T13:32:16.750Z,4.47
2023-03-06T13:33:58.239Z,4.60
2023-03-06T13:34:59.956Z,4.47
2023-03-06T13:36:21.554Z,4.55
2023-03-06T13:37:54.268Z,4.03
2023-03-06T13:39:05.268Z,2.97
2023-03-06T13:40:26.714Z,3.90
2023-03-06T13:41:58.595Z,3.25
2023-03-06T13:43:21.350Z,5.00
2023-03-06T13:44:41.574Z,4.95
2023-03-06T13:45:44.494Z,4.90
2023-03-06T13:46:57.420Z,4.43
2023-03-06T13:48:37.458Z,4.80
2023-03-06T13:49:25.839Z,4.50
2023-03-06T13:50:33.658Z,4.45
2023-03-06T13:51:38.161Z,4.03
2023-03-06T13:52:44.717Z,4.45
2023-03-06T13:54:01.320Z,4.00
2023-03-06T13:55:09.881Z,4.25
2023-03-06T13:56:42.434Z,4.13
2023-03-06T13:58:17.717Z,4.03
2023-03-06T13:59:30.571Z,4.22
2023-03-06T14:00:46.161Z,3.97
2023-03-06T14:01:55.067Z,4.97
2023-03-06T14:03:19.873Z,4.50
2023-03-06T14:04:38.616Z,4.43
2023-03-06T14:05:43.490Z,4.18
2023-03-06T14:07:20.376Z,4.13
2023-03-06T14:08:25.247Z,4.50
2023-03-06T14:09:28.925Z,3.50
2023-03-06T14:10:34.607Z,3.97
2023-03-06T14:11:37.566Z,4.82
2023-03-06T14:12:42.851Z,4.70
2023-03-06T14:13:49.977Z,4.18
2023-03-06T14:14:55.555Z,4.07
2023-03-06T14:15:58.279Z,4.40
2023-03-06T14:17:00.981Z,4.50
2023-03-06T14:18:06.872Z,3.03
2023-03-06T14:19:16.999Z,4.18
2023-03-06T14:20:21.422Z,3.88
2023-03-06T14:21:30.714Z,3.03
2023-03-06T14:22:33.478Z,4.28
2023-03-06T14:23:42.219Z,3.75
2023-03-06T14:24:53.464Z,3.65
2023-03-06T14:25:59.331Z,3.33
2023-03-06T14:27:02.228Z,3.75
2023-03-06T14:28:13.833Z,3.72
2023-03-06T14:29:22.895Z,4.10
2023-03-06T14:30:26.709Z,3.88
2023-03-06T14:31:32.533Z,4.20
2023-03-06T14:32:34.385Z,3.92
2023-03-06T14:33:43.985Z,3.95
2023-03-06T14:34:47.453Z,4.10
2023-03-06T14:35:53.597Z,3.95